West Jefferson, Ohio
Current Conditions -  °F | °C
As of 11:35 PM on Saturday 25 Oct 2014 (Local Time) from KTZR Reporting Station
Clear Clear  
Wind Chill: 56°   Ceiling: Unl
Heat Index: 56°   Visibility: 10mi
Dew Point: 46°   Wind: 5mph
Humidity: 68%   Direction: 280°W
Pressure: 29.89"   Gusts: NA
Location:  39.94°N, 83.27°W
Report Text: KTZR 260335Z AUTO 28004KT 10SM CLR 14/08 A2989 RMK AO2 T01350076
Loading
Personal Weather Stations






























Interactive Weather Map New forecast layout! Learn more

10-Day Weather Forecast

Advertisements
Track Severe Weather on mobile